Time;durP1;ratioP1;P1;durP2;ratioP2;P2;SDS_P1;SDS_P2;PMS_P1;PMS_P2;Temp;Humidity;BMP_temperature;BMP_pressure;BME280_temperature;BME280_humidity;BME280_pressure;Samples;Min_cycle;Max_cycle;Signal;HPM_P1;HPM_P2
2023/04/02 00:00:10;;;;;;;11.10;2.65;;;3.20;99.90;;;;;;5027242;28;20041;-62
2023/04/02 00:03:00;;;;;;;5.97;1.40;;;3.20;99.90;;;;;;5026856;28;20085;-62
2023/04/02 00:05:33;;;;;;;4.10;2.17;;;3.20;99.90;;;;;;5009127;28;20045;-62
2023/04/02 00:08:09;;;;;;;6.88;2.05;;;3.20;99.90;;;;;;5028342;28;20112;-62
2023/04/02 00:10:37;;;;;;;5.78;1.50;;;3.20;99.90;;;;;;5026313;28;20111;-61
2023/04/02 00:13:09;;;;;;;4.97;1.70;;;3.20;99.90;;;;;;5009400;28;20041;-62
2023/04/02 00:15:38;;;;;;;4.85;1.35;;;3.10;99.90;;;;;;5026475;28;20050;-62
2023/04/02 00:18:05;;;;;;;3.67;1.90;;;3.10;99.90;;;;;;4993319;28;20511;-62
2023/04/02 00:20:42;;;;;;;2.03;1.25;;;3.10;99.90;;;;;;5026803;28;20068;-62
2023/04/02 00:23:12;;;;;;;4.82;1.92;;;3.10;99.90;;;;;;5026713;28;20053;-62
2023/04/02 00:25:42;;;;;;;4.95;1.77;;;3.10;99.90;;;;;;5009132;28;20053;-62
2023/04/02 00:28:34;;;;;;;6.65;2.08;;;3.10;99.90;;;;;;4992561;28;20041;-62
2023/04/02 00:31:00;;;;;;;4.32;1.50;;;3.10;99.90;;;;;;5017348;28;20041;-62
2023/04/02 00:33:30;;;;;;;11.85;2.20;;;3.00;99.90;;;;;;5008960;28;20118;-61
2023/04/02 00:35:56;;;;;;;6.53;2.15;;;2.90;99.90;;;;;;5008363;28;20126;-62
2023/04/02 00:38:30;;;;;;;6.30;2.20;;;3.00;99.90;;;;;;5029549;28;20045;-62
2023/04/02 00:41:00;;;;;;;4.95;1.40;;;2.90;99.90;;;;;;5025874;28;20562;-62
2023/04/02 00:43:29;;;;;;;6.90;1.70;;;2.90;99.90;;;;;;5025487;28;20041;-62
2023/04/02 00:45:58;;;;;;;5.70;1.58;;;2.90;99.90;;;;;;5026301;28;20041;-61
2023/04/02 00:48:55;;;;;;;3.00;1.25;;;2.90;99.90;;;;;;5026694;28;20041;-62
2023/04/02 00:51:31;;;;;;;1.52;1.40;;;2.80;99.90;;;;;;4973408;28;20132;-62
2023/04/02 00:54:01;;;;;;;3.63;1.45;;;2.80;99.90;;;;;;5008377;28;20375;-62
2023/04/02 00:56:38;;;;;;;4.30;1.20;;;2.80;99.90;;;;;;5010338;28;20049;-61
2023/04/02 00:59:04;;;;;;;2.25;1.70;;;2.80;99.90;;;;;;5028517;28;20044;-61
2023/04/02 01:01:35;;;;;;;5.07;1.25;;;2.70;99.90;;;;;;5031526;28;20043;-61
2023/04/02 01:04:04;;;;;;;3.92;1.73;;;2.80;99.90;;;;;;5026110;28;20057;-62
2023/04/02 01:06:36;;;;;;;4.97;1.63;;;2.70;99.90;;;;;;5026669;28;20478;-62
2023/04/02 01:09:20;;;;;;;2.90;1.23;;;2.70;99.90;;;;;;5008330;28;20057;-61
2023/04/02 01:11:57;;;;;;;6.40;1.30;;;2.70;99.90;;;;;;5026123;28;20119;-61
2023/04/02 01:14:25;;;;;;;4.18;1.48;;;2.60;99.90;;;;;;4993129;28;20141;-61
2023/04/02 01:16:53;;;;;;;6.72;1.50;;;2.60;99.90;;;;;;5025647;28;20255;-61
2023/04/02 01:19:44;;;;;;;5.78;1.45;;;2.60;99.90;;;;;;5008392;28;20117;-62
2023/04/02 01:22:19;;;;;;;;;;;2.50;99.90;;;;;;5034857;28;20600;-62
2023/04/02 01:24:45;;;;;;;1.85;1.08;;;2.60;99.90;;;;;;5025636;28;20290;-61
2023/04/02 01:27:38;;;;;;;2.60;1.38;;;2.50;99.90;;;;;;5026258;28;20038;-61
2023/04/02 01:30:10;;;;;;;4.85;1.67;;;2.50;99.90;;;;;;5006414;28;20307;-61
2023/04/02 01:32:37;;;;;;;7.90;1.33;;;2.50;99.90;;;;;;5045292;28;20052;-62
2023/04/02 01:35:03;;;;;;;6.22;1.35;;;2.40;99.90;;;;;;5028968;28;20082;-61
2023/04/02 01:37:52;;;;;;;2.55;1.42;;;2.40;99.90;;;;;;5029778;28;20673;-61
2023/04/02 01:40:27;;;;;;;5.03;1.58;;;2.40;99.90;;;;;;5030909;28;20135;-61
2023/04/02 01:42:52;;;;;;;6.53;1.70;;;2.40;99.90;;;;;;5029347;28;20045;-61
2023/04/02 01:45:21;;;;;;;5.03;1.13;;;2.30;99.90;;;;;;5011687;28;20461;-61
2023/04/02 01:47:48;;;;;;;6.15;1.27;;;2.40;99.90;;;;;;4995297;28;20504;-61
2023/04/02 01:50:35;;;;;;;5.35;1.20;;;2.30;99.90;;;;;;5029514;28;20427;-61
2023/04/02 01:53:10;;;;;;;1.83;1.10;;;2.30;99.90;;;;;;5022233;28;20054;-61
2023/04/02 01:55:45;;;;;;;5.22;1.27;;;2.30;99.90;;;;;;5011889;28;20057;-61
2023/04/02 01:58:13;;;;;;;4.72;1.25;;;2.30;99.90;;;;;;5028964;28;20204;-61
2023/04/02 02:00:52;;;;;;;2.83;1.20;;;2.20;99.90;;;;;;5029236;28;20042;-61
2023/04/02 02:03:19;;;;;;;5.43;1.08;;;2.20;99.90;;;;;;5033477;28;20053;-61
2023/04/02 02:05:54;;;;;;;7.25;1.30;;;2.30;99.90;;;;;;5028835;28;20046;-62
2023/04/02 02:08:51;;;;;;;4.05;1.17;;;2.20;99.90;;;;;;5029141;28;20129;-61
2023/04/02 02:11:20;;;;;;;4.63;1.27;;;2.20;99.90;;;;;;5018083;28;20107;-61
2023/04/02 02:14:19;;;;;;;8.43;1.15;;;2.20;99.90;;;;;;5029023;28;20077;-62
2023/04/02 02:16:46;;;;;;;9.10;1.10;;;2.20;99.90;;;;;;5002247;28;20128;-61
2023/04/02 02:19:35;;;;;;;4.45;1.00;;;2.10;99.90;;;;;;5028651;28;20516;-61
2023/04/02 02:22:19;;;;;;;7.53;1.07;;;2.10;99.90;;;;;;5029257;28;20410;-61
2023/04/02 02:24:46;;;;;;;2.30;1.13;;;2.10;99.90;;;;;;5039890;28;20508;-61
2023/04/02 02:27:24;;;;;;;2.50;1.10;;;2.10;99.90;;;;;;5028714;28;20516;-61
2023/04/02 02:30:16;;;;;;;2.65;1.08;;;2.10;99.90;;;;;;5028482;28;20045;-61
2023/04/02 02:33:02;;;;;;;9.43;1.63;;;2.10;99.90;;;;;;5030008;28;20053;-62
2023/04/02 02:35:33;;;;;;;9.52;1.85;;;2.10;99.90;;;;;;5017370;28;20053;-61
2023/04/02 02:38:28;;;;;;;4.57;1.35;;;2.10;99.90;;;;;;5028075;28;20391;-61
2023/04/02 02:40:58;;;;;;;7.25;1.55;;;2.10;99.90;;;;;;5010404;28;20049;-61
2023/04/02 02:43:26;;;;;;;9.48;1.50;;;2.10;99.90;;;;;;5027527;28;20037;-61
2023/04/02 02:45:55;;;;;;;8.07;1.23;;;2.10;99.90;;;;;;5028185;28;20454;-62
2023/04/02 02:48:32;;;;;;;13.18;1.60;;;2.10;99.90;;;;;;5015078;28;20050;-61
2023/04/02 02:51:00;;;;;;;5.57;1.40;;;2.00;99.90;;;;;;5027700;28;20049;-61
2023/04/02 02:53:25;;;;;;;5.13;0.95;;;2.00;99.90;;;;;;5010604;28;20054;-61
2023/04/02 02:55:58;;;;;;;3.33;1.00;;;2.00;99.90;;;;;;5040139;28;20148;-61
2023/04/02 02:58:28;;;;;;;5.90;1.30;;;2.00;99.90;;;;;;5028085;28;20528;-61
2023/04/02 03:00:54;;;;;;;4.88;1.00;;;2.00;99.90;;;;;;5015936;28;20041;-62
2023/04/02 03:03:23;;;;;;;7.18;1.52;;;2.00;99.90;;;;;;5027568;28;20049;-61
2023/04/02 03:05:53;;;;;;;9.38;1.25;;;2.00;99.90;;;;;;5028058;28;20125;-61
2023/04/02 03:08:28;;;;;;;5.15;1.08;;;2.00;99.90;;;;;;5027792;28;20037;-62
2023/04/02 03:11:38;;;;;;;5.53;1.27;;;2.00;99.90;;;;;;5029706;28;20481;-61
2023/04/02 03:14:32;;;;;;;7.72;1.48;;;2.00;99.90;;;;;;5008545;28;20111;-61
2023/04/02 03:17:29;;;;;;;7.10;1.15;;;2.00;99.90;;;;;;5027900;28;20557;-61
2023/04/02 03:20:05;;;;;;;5.75;1.35;;;2.00;99.90;;;;;;5009825;28;20057;-61
2023/04/02 03:22:41;;;;;;;3.50;1.00;;;2.00;99.90;;;;;;5039330;28;20183;-61
2023/04/02 03:25:15;;;;;;;2.33;1.20;;;1.90;99.90;;;;;;5014488;28;20033;-61
2023/04/02 03:27:45;;;;;;;8.43;1.60;;;1.90;99.90;;;;;;5027639;28;20499;-62
2023/04/02 03:30:35;;;;;;;5.80;0.90;;;1.90;99.90;;;;;;5027273;28;20128;-61
2023/04/02 03:33:13;;;;;;;3.35;1.25;;;1.90;99.90;;;;;;5029781;28;20037;-62
2023/04/02 03:35:58;;;;;;;6.50;1.13;;;1.90;99.90;;;;;;5032442;28;20057;-61
2023/04/02 03:38:32;;;;;;;4.38;1.23;;;1.90;99.90;;;;;;5027006;28;20128;-61
2023/04/02 03:41:21;;;;;;;5.20;1.17;;;1.90;99.90;;;;;;5009728;28;20049;-61
2023/04/02 03:43:54;;;;;;;9.05;1.35;;;1.90;99.90;;;;;;5009265;28;20049;-61
2023/04/02 03:46:28;;;;;;;8.02;1.13;;;2.00;99.90;;;;;;5027867;28;20558;-61
2023/04/02 03:48:59;;;;;;;3.92;1.38;;;2.00;99.90;;;;;;5014844;28;20049;-61
2023/04/02 03:51:37;;;;;;;8.63;1.30;;;1.90;99.90;;;;;;5026693;28;20045;-61
2023/04/02 03:54:04;;;;;;;14.63;1.50;;;1.90;99.90;;;;;;5027057;28;20060;-61
2023/04/02 03:56:38;;;;;;;5.88;0.82;;;1.90;99.90;;;;;;5010249;28;20435;-61
2023/04/02 03:59:10;;;;;;;3.38;1.00;;;1.80;99.90;;;;;;5014159;28;20476;-61
2023/04/02 04:01:42;;;;;;;8.00;1.13;;;1.90;99.90;;;;;;5014294;28;20048;-61
2023/04/02 04:04:15;;;;;;;6.93;1.25;;;1.90;99.90;;;;;;5026777;28;20091;-61
2023/04/02 04:06:43;;;;;;;6.25;1.15;;;1.90;99.90;;;;;;5031970;28;20041;-61
2023/04/02 04:09:11;;;;;;;9.48;1.40;;;1.90;99.90;;;;;;5026310;28;20088;-61
2023/04/02 04:11:43;;;;;;;6.30;1.27;;;1.90;99.90;;;;;;5009414;28;20160;-61
2023/04/02 04:14:17;;;;;;;7.10;1.33;;;1.90;99.90;;;;;;5026572;28;20053;-61
2023/04/02 04:16:54;;;;;;;7.93;1.77;;;2.00;99.90;;;;;;5027953;28;20114;-61
2023/04/02 04:19:40;;;;;;;6.80;1.20;;;2.00;99.90;;;;;;5012988;28;20114;-61
2023/04/02 04:22:13;;;;;;;6.15;1.15;;;2.00;99.90;;;;;;5026939;28;20064;-61
2023/04/02 04:24:39;;;;;;;6.72;1.00;;;2.00;99.90;;;;;;5008883;28;20231;-61
2023/04/02 04:27:24;;;;;;;5.45;0.95;;;2.00;99.90;;;;;;5027250;28;20053;-61
2023/04/02 04:30:02;;;;;;;6.10;1.65;;;2.00;99.90;;;;;;5029725;28;20044;-61
2023/04/02 04:32:57;;;;;;;2.28;1.10;;;2.00;99.90;;;;;;5026339;28;20513;-61
2023/04/02 04:35:36;;;;;;;3.95;1.20;;;2.00;99.90;;;;;;5008341;28;20053;-61
2023/04/02 04:38:10;;;;;;;6.30;1.60;;;2.00;99.90;;;;;;5026590;28;20053;-62
2023/04/02 04:40:52;;;;;;;6.50;1.23;;;2.00;99.90;;;;;;4997336;28;20055;-61
2023/04/02 04:43:47;;;;;;;3.50;0.90;;;2.00;99.90;;;;;;5029544;28;20117;-61
2023/04/02 04:46:19;;;;;;;3.58;0.95;;;2.00;99.90;;;;;;5017124;28;20503;-61
2023/04/02 04:49:06;;;;;;;11.30;1.67;;;2.00;99.90;;;;;;5026468;28;20049;-61
2023/04/02 04:51:44;;;;;;;2.97;0.80;;;2.10;99.90;;;;;;5027110;28;20065;-61
2023/04/02 04:54:14;;;;;;;4.72;1.15;;;2.00;99.90;;;;;;5015451;28;20060;-62
2023/04/02 04:56:43;;;;;;;3.20;1.23;;;2.00;99.90;;;;;;5026546;28;20072;-61
2023/04/02 04:59:34;;;;;;;5.60;1.50;;;2.00;99.90;;;;;;5026855;28;20037;-61
2023/04/02 05:02:30;;;;;;;5.80;1.00;;;2.10;99.90;;;;;;5009835;28;20087;-61
2023/04/02 05:04:55;;;;;;;3.30;1.20;;;2.10;99.90;;;;;;5026546;28;20041;-61
2023/04/02 05:07:26;;;;;;;3.97;0.88;;;2.10;99.90;;;;;;5029489;28;20064;-61
2023/04/02 05:10:24;;;;;;;1.60;0.52;;;2.10;99.90;;;;;;5030024;28;20057;-61
2023/04/02 05:12:55;;;;;;;3.92;1.00;;;2.10;99.90;;;;;;5012659;28;20384;-61
2023/04/02 05:15:36;;;;;;;7.07;1.33;;;2.10;99.90;;;;;;5011924;28;20049;-61
2023/04/02 05:18:24;;;;;;;7.97;1.63;;;2.10;99.90;;;;;;5030142;28;20041;-61
2023/04/02 05:21:14;;;;;;;7.50;1.10;;;2.10;99.90;;;;;;5012265;28;20041;-61
2023/04/02 05:23:49;;;;;;;4.82;1.05;;;2.20;99.90;;;;;;5030600;28;20045;-61
2023/04/02 05:26:20;;;;;;;6.72;0.93;;;2.10;99.90;;;;;;5030083;28;20387;-61
2023/04/02 05:28:58;;;;;;;7.55;1.38;;;2.20;99.90;;;;;;5030196;28;20048;-61
2023/04/02 05:31:36;;;;;;;7.60;1.33;;;2.20;99.90;;;;;;5030341;28;20056;-61
2023/04/02 05:34:02;;;;;;;9.18;1.48;;;2.20;99.90;;;;;;5021084;28;20592;-61
2023/04/02 05:36:29;;;;;;;6.68;1.10;;;2.20;99.90;;;;;;5031957;28;20049;-62
2023/04/02 05:38:57;;;;;;;7.13;1.23;;;2.20;99.90;;;;;;5012205;28;20057;-61
2023/04/02 05:41:44;;;;;;;3.42;0.90;;;2.20;99.90;;;;;;5028960;28;20098;-61
2023/04/02 05:44:23;;;;;;;6.43;1.27;;;2.20;99.90;;;;;;5013234;28;20534;-61
2023/04/02 05:46:56;;;;;;;1.98;1.00;;;2.30;99.90;;;;;;5011890;28;20399;-61
2023/04/02 05:49:34;;;;;;;4.65;1.42;;;2.30;99.90;;;;;;5011316;28;20046;-61
2023/04/02 05:52:02;;;;;;;6.55;1.38;;;2.30;99.90;;;;;;5029287;28;20037;-61
2023/04/02 05:54:31;;;;;;;2.72;0.90;;;2.30;99.90;;;;;;5012735;28;20112;-61
2023/04/02 05:57:04;;;;;;;6.78;1.40;;;2.40;99.90;;;;;;5044762;28;20292;-61
2023/04/02 05:59:36;;;;;;;7.88;1.60;;;2.40;99.90;;;;;;5032456;28;20066;-61
2023/04/02 06:02:23;;;;;;;4.72;1.38;;;2.40;99.90;;;;;;5034769;28;20434;-61
2023/04/02 06:04:52;;;;;;;8.90;1.58;;;2.50;99.90;;;;;;5011695;28;20057;-61
2023/04/02 06:07:25;;;;;;;2.92;1.10;;;2.40;99.90;;;;;;5029398;28;20045;-61
2023/04/02 06:10:06;;;;;;;5.82;1.23;;;2.50;99.90;;;;;;5029114;28;20097;-61
2023/04/02 06:12:41;;;;;;;2.63;1.00;;;2.50;99.90;;;;;;5028709;28;20045;-61
2023/04/02 06:15:15;;;;;;;4.97;1.20;;;2.60;99.90;;;;;;5029387;28;20426;-61
2023/04/02 06:17:57;;;;;;;5.63;1.40;;;2.60;99.90;;;;;;5028209;28;20085;-61
2023/04/02 06:20:23;;;;;;;5.10;1.00;;;2.70;99.90;;;;;;5029998;28;20574;-62
2023/04/02 06:22:55;;;;;;;3.00;1.02;;;2.80;99.90;;;;;;5025064;28;20071;-62
2023/04/02 06:25:38;;;;;;;7.72;1.17;;;2.80;99.90;;;;;;5029408;28;20044;-61
2023/04/02 06:28:10;;;;;;;6.75;1.25;;;2.90;99.90;;;;;;5010959;28;20569;-61
2023/04/02 06:30:40;;;;;;;4.28;1.00;;;2.90;99.90;;;;;;5039691;28;20044;-61
2023/04/02 06:33:06;;;;;;;5.55;1.10;;;3.00;99.90;;;;;;5029895;28;20045;-61
2023/04/02 06:35:35;;;;;;;5.97;0.88;;;3.10;99.90;;;;;;5028087;28;20056;-61
2023/04/02 06:38:04;;;;;;;4.72;0.70;;;3.30;99.90;;;;;;5028691;28;20399;-61
2023/04/02 06:40:33;;;;;;;10.23;1.30;;;3.40;99.90;;;;;;5029060;28;20037;-61
2023/04/02 06:43:04;;;;;;;4.80;1.23;;;3.50;99.90;;;;;;5028041;28;20065;-61
2023/04/02 06:45:37;;;;;;;6.35;0.93;;;3.70;99.90;;;;;;5028175;28;20037;-61
2023/04/02 06:48:03;;;;;;;4.45;0.90;;;4.00;99.90;;;;;;5028467;28;20824;-61
2023/04/02 06:50:57;;;;;;;3.63;0.90;;;4.00;98.30;;;;;;5028985;28;20107;-61
2023/04/02 06:53:28;;;;;;;5.00;1.25;;;4.00;98.60;;;;;;5006198;28;20055;-61
2023/04/02 06:56:03;;;;;;;10.48;1.00;;;3.90;99.90;;;;;;5038286;28;20049;-61
2023/04/02 06:58:30;;;;;;;2.30;1.05;;;3.70;99.90;;;;;;5027457;28;20112;-61
2023/04/02 07:00:56;;;;;;;1.55;0.90;;;3.70;99.90;;;;;;5024033;28;20046;-61
2023/04/02 07:03:27;;;;;;;7.07;1.27;;;3.60;99.90;;;;;;5025749;28;20088;-62
2023/04/02 07:05:53;;;;;;;4.03;0.98;;;3.80;99.90;;;;;;5026020;28;20076;-61
2023/04/02 07:08:19;;;;;;;3.00;1.05;;;3.90;99.90;;;;;;5011546;28;20073;-61
2023/04/02 07:10:45;;;;;;;5.05;1.05;;;4.00;99.90;;;;;;5008092;28;20042;-61
2023/04/02 07:13:29;;;;;;;4.85;0.82;;;4.00;95.60;;;;;;5027803;28;20037;-61
2023/04/02 07:15:55;;;;;;;4.75;1.25;;;4.10;97.20;;;;;;5007622;28;20514;-61
2023/04/02 07:18:30;;;;;;;6.63;1.23;;;4.10;98.10;;;;;;5027102;28;20131;-61
2023/04/02 07:20:57;;;;;;;3.17;1.13;;;4.10;95.00;;;;;;5025801;28;20041;-61
2023/04/02 07:23:23;;;;;;;7.03;0.98;;;4.20;97.10;;;;;;5028525;28;20135;-61
2023/04/02 07:25:50;;;;;;;8.02;1.15;;;4.20;97.30;;;;;;4994195;28;20087;-62
2023/04/02 07:28:16;;;;;;;4.28;1.10;;;4.20;94.50;;;;;;5006729;28;20129;-61
2023/04/02 07:30:44;;;;;;;4.75;0.95;;;4.10;91.70;;;;;;5023776;28;20049;-61
2023/04/02 07:33:18;;;;;;;6.43;1.02;;;4.10;94.10;;;;;;5030946;28;20141;-61
2023/04/02 07:35:44;;;;;;;3.67;1.35;;;4.20;96.10;;;;;;5026865;28;20041;-61
2023/04/02 07:38:10;;;;;;;2.70;0.95;;;4.30;94.30;;;;;;5031365;28;20053;-61
2023/04/02 07:40:36;;;;;;;5.20;1.40;;;4.50;95.40;;;;;;5033168;28;20099;-62
2023/04/02 07:43:02;;;;;;;2.95;0.88;;;4.60;94.90;;;;;;5032832;28;20049;-61
2023/04/02 07:45:28;;;;;;;12.13;1.38;;;4.80;95.60;;;;;;5026856;28;20446;-61
2023/04/02 07:47:54;;;;;;;3.33;1.10;;;4.90;93.70;;;;;;5012192;28;20041;-61
2023/04/02 07:50:20;;;;;;;5.25;1.17;;;5.00;91.60;;;;;;5026993;28;20157;-62
2023/04/02 07:52:45;;;;;;;4.72;1.15;;;5.00;90.20;;;;;;5026115;28;20108;-61
2023/04/02 07:55:14;;;;;;;4.43;1.30;;;5.20;92.30;;;;;;5027091;28;20479;-61
2023/04/02 07:57:51;;;;;;;4.53;0.80;;;5.20;89.50;;;;;;5026354;28;20475;-61
2023/04/02 08:00:18;;;;;;;5.05;1.33;;;5.40;86.60;;;;;;5027660;28;20046;-61
2023/04/02 08:02:44;;;;;;;4.65;1.15;;;5.40;82.50;;;;;;5020046;28;20052;-61
2023/04/02 08:05:10;;;;;;;6.50;1.52;;;5.50;84.10;;;;;;5031053;28;20041;-61
2023/04/02 08:07:37;;;;;;;4.10;0.88;;;5.40;81.10;;;;;;5027559;28;20088;-61
2023/04/02 08:10:05;;;;;;;5.18;1.20;;;5.30;80.30;;;;;;5026590;28;20450;-61
2023/04/02 08:12:31;;;;;;;2.78;0.88;;;5.40;90.80;;;;;;5027455;28;20124;-61
2023/04/02 08:14:57;;;;;;;2.45;1.00;;;5.60;84.70;;;;;;5033218;28;20665;-61
2023/04/02 08:17:22;;;;;;;5.22;1.02;;;5.50;76.30;;;;;;5009085;28;20053;-61
2023/04/02 08:19:48;;;;;;;3.75;1.00;;;5.70;80.70;;;;;;5038083;28;20060;-61
2023/04/02 08:22:14;;;;;;;5.75;1.25;;;5.80;84.20;;;;;;5021174;28;20111;-61
2023/04/02 08:24:45;;;;;;;3.28;1.08;;;5.90;80.00;;;;;;5030179;28;20037;-61
2023/04/02 08:27:14;;;;;;;3.58;1.00;;;5.90;80.40;;;;;;5026406;28;20036;-62
2023/04/02 08:29:39;;;;;;;1.63;0.80;;;6.00;78.60;;;;;;5036125;28;20075;-61
2023/04/02 08:32:06;;;;;;;5.82;1.08;;;6.10;78.20;;;;;;5036373;28;20062;-61
2023/04/02 08:34:32;;;;;;;3.72;1.10;;;6.30;80.00;;;;;;5032722;28;20120;-61
2023/04/02 08:36:57;;;;;;;4.30;1.00;;;6.40;72.30;;;;;;5027391;28;20063;-61
2023/04/02 08:39:25;;;;;;;3.72;0.90;;;6.30;70.70;;;;;;5009200;28;20092;-61
2023/04/02 08:42:00;;;;;;;8.02;1.42;;;6.30;72.50;;;;;;5036793;28;20407;-61
2023/04/02 08:44:35;;;;;;;5.15;1.00;;;6.40;73.70;;;;;;5033145;28;20072;-61
2023/04/02 08:47:08;;;;;;;4.20;1.85;;;6.40;64.10;;;;;;5045499;28;20188;-61
2023/04/02 08:49:36;;;;;;;4.50;0.85;;;6.40;68.90;;;;;;5037718;28;20132;-61
2023/04/02 08:52:03;;;;;;;5.53;1.27;;;6.40;68.20;;;;;;5029897;28;20046;-61
2023/04/02 08:54:38;;;;;;;5.72;1.13;;;6.60;71.30;;;;;;5030234;28;20044;-61
2023/04/02 08:57:11;;;;;;;3.65;1.00;;;6.70;67.70;;;;;;5012909;28;20075;-61
2023/04/02 08:59:40;;;;;;;1.45;0.77;;;6.80;71.40;;;;;;5034405;28;20493;-61
2023/04/02 09:02:34;;;;;;;5.55;1.33;;;6.90;66.40;;;;;;5031107;28;20045;-61
2023/04/02 09:05:04;;;;;;;3.75;0.60;;;7.00;62.10;;;;;;5012453;28;20061;-60
2023/04/02 09:07:32;;;;;;;6.30;0.95;;;7.00;59.70;;;;;;5025774;28;20064;-61
2023/04/02 09:09:59;;;;;;;3.05;0.80;;;7.00;59.50;;;;;;5035182;28;20088;-61
2023/04/02 09:12:31;;;;;;;4.18;0.80;;;7.10;66.20;;;;;;5030177;28;20384;-60
2023/04/02 09:15:09;;;;;;;8.20;1.00;;;7.20;59.40;;;;;;5015984;28;20037;-61
2023/04/02 09:17:36;;;;;;;1.48;0.73;;;7.30;68.40;;;;;;5036975;28;20049;-61
2023/04/02 09:20:21;;;;;;;7.28;0.70;;;7.20;58.30;;;;;;5029687;28;20061;-61
2023/04/02 09:22:50;;;;;;;3.50;1.10;;;7.30;62.70;;;;;;5027615;28;20045;-61
2023/04/02 09:25:28;;;;;;;2.33;0.85;;;7.50;60.10;;;;;;5031225;28;20423;-61
2023/04/02 09:27:56;;;;;;;4.72;0.95;;;7.60;62.30;;;;;;5032127;28;20043;-61
2023/04/02 09:30:28;;;;;;;3.58;0.68;;;7.70;61.20;;;;;;5017441;28;20128;-61
2023/04/02 09:32:57;;;;;;;3.88;1.20;;;7.70;62.90;;;;;;5035791;28;20050;-60
2023/04/02 09:35:28;;;;;;;2.53;1.00;;;7.80;54.70;;;;;;5044718;28;20048;-60
2023/04/02 09:38:15;;;;;;;1.88;0.77;;;7.90;57.60;;;;;;5027336;28;20049;-61
2023/04/02 09:40:52;;;;;;;3.30;1.27;;;7.90;56.30;;;;;;5034152;28;20056;-60
2023/04/02 09:43:21;;;;;;;6.15;1.23;;;8.10;60.10;;;;;;5031379;28;20488;-61
2023/04/02 09:46:19;;;;;;;3.92;0.80;;;8.10;54.00;;;;;;5029992;28;20080;-60
2023/04/02 09:48:53;;;;;;;6.95;0.85;;;8.10;53.80;;;;;;5030719;28;20053;-61
2023/04/02 09:51:32;;;;;;;3.40;0.77;;;8.10;56.90;;;;;;5010533;28;20378;-61
2023/04/02 09:54:11;;;;;;;3.25;0.60;;;8.10;51.20;;;;;;5028529;28;20158;-61
2023/04/02 09:56:38;;;;;;;2.65;0.82;;;8.10;49.00;;;;;;5031177;28;20874;-61
2023/04/02 09:59:04;;;;;;;3.30;0.90;;;8.20;54.50;;;;;;5033221;28;20400;-61
2023/04/02 10:01:33;;;;;;;7.55;1.13;;;8.20;47.90;;;;;;5046667;28;20044;-60
2023/04/02 10:04:01;;;;;;;1.58;0.60;;;8.20;49.60;;;;;;5011091;28;20495;-60
2023/04/02 10:06:28;;;;;;;2.47;0.93;;;8.30;48.10;;;;;;5028741;28;20029;-60
2023/04/02 10:08:55;;;;;;;2.05;1.05;;;8.30;49.20;;;;;;5037736;28;20044;-61
2023/04/02 10:11:32;;;;;;;1.95;0.68;;;8.30;42.70;;;;;;5029714;28;20522;-60
2023/04/02 10:14:00;;;;;;;2.67;0.80;;;8.30;47.70;;;;;;5029590;28;20092;-61
2023/04/02 10:16:39;;;;;;;5.93;0.95;;;8.40;47.60;;;;;;5033772;28;20487;-61
2023/04/02 10:19:49;;;;;;;4.60;0.65;;;8.40;45.30;;;;;;5016639;28;20053;-60
2023/04/02 10:22:18;;;;;;;0.93;0.40;;;8.50;52.20;;;;;;4940825;28;20106;-61
2023/04/02 10:24:44;;;;;;;1.90;0.52;;;8.80;52.10;;;;;;5004676;28;20072;-61
2023/04/02 10:27:41;;;;;;;2.47;0.60;;;8.90;47.80;;;;;;5037158;28;20504;-61
2023/04/02 10:30:34;;;;;;;1.48;0.90;;;8.70;39.70;;;;;;5015766;28;20048;-61
2023/04/02 10:33:06;;;;;;;3.05;0.60;;;8.60;41.30;;;;;;5039561;28;20136;-61
2023/04/02 10:36:02;;;;;;;1.52;0.50;;;8.70;42.00;;;;;;5042674;28;20084;-61
2023/04/02 10:38:42;;;;;;;4.60;0.65;;;8.90;45.60;;;;;;5030135;28;20077;-61
2023/04/02 10:41:28;;;;;;;2.65;0.80;;;8.80;39.70;;;;;;5043393;28;20435;-61
2023/04/02 10:44:08;;;;;;;2.13;0.68;;;8.80;40.40;;;;;;5012854;28;20068;-62
2023/04/02 10:46:36;;;;;;;0.95;0.45;;;8.90;42.70;;;;;;5027338;28;20513;-61
2023/04/02 10:49:21;;;;;;;3.83;0.82;;;8.90;41.20;;;;;;5004949;28;20053;-61
2023/04/02 10:51:53;;;;;;;1.88;0.55;;;8.90;41.00;;;;;;5025137;28;20049;-61
2023/04/02 10:54:26;;;;;;;4.95;0.90;;;9.00;38.40;;;;;;5018087;28;20041;-61
2023/04/02 10:57:03;;;;;;;2.85;0.50;;;9.10;48.70;;;;;;5010397;28;20053;-61
2023/04/02 10:59:33;;;;;;;1.85;0.50;;;9.20;45.10;;;;;;5018493;28;20049;-61
2023/04/02 11:02:05;;;;;;;2.97;0.80;;;9.20;43.10;;;;;;5018384;28;20057;-61
2023/04/02 11:04:44;;;;;;;1.17;0.40;;;9.10;40.90;;;;;;5033172;28;20491;-61
2023/04/02 11:07:18;;;;;;;3.22;0.88;;;9.20;41.00;;;;;;5031261;28;20049;-61
2023/04/02 11:09:48;;;;;;;3.95;0.75;;;9.20;38.60;;;;;;5002710;28;20085;-61
2023/04/02 11:12:27;;;;;;;4.07;0.82;;;9.10;40.40;;;;;;5038607;28;20507;-61
2023/04/02 11:14:55;;;;;;;3.92;0.82;;;9.00;39.00;;;;;;5040779;28;20626;-61
2023/04/02 11:17:21;;;;;;;2.88;0.60;;;9.00;39.20;;;;;;5033257;28;20056;-61
2023/04/02 11:19:47;;;;;;;1.05;0.47;;;9.00;40.20;;;;;;5029490;28;20041;-61
2023/04/02 11:22:14;;;;;;;3.40;0.52;;;9.10;45.40;;;;;;5027879;28;20045;-61
2023/04/02 11:24:44;;;;;;;1.42;0.50;;;9.10;42.20;;;;;;5042386;28;20041;-61
2023/04/02 11:27:34;;;;;;;2.17;0.80;;;9.20;36.90;;;;;;5032881;28;20061;-61
2023/04/02 11:30:18;;;;;;;5.32;0.70;;;9.20;45.50;;;;;;5009408;28;20422;-61
2023/04/02 11:32:48;;;;;;;4.10;0.50;;;9.20;40.60;;;;;;5031125;28;20050;-61
2023/04/02 11:35:32;;;;;;;2.13;0.73;;;9.20;36.70;;;;;;5025438;28;20479;-61
2023/04/02 11:38:21;;;;;;;2.10;0.60;;;9.30;44.90;;;;;;5040195;28;20291;-61
2023/04/02 11:41:05;;;;;;;1.77;0.50;;;9.40;41.20;;;;;;5010789;28;20072;-61
2023/04/02 11:43:34;;;;;;;2.92;1.00;;;9.50;41.10;;;;;;5040109;28;20041;-61
2023/04/02 11:46:20;;;;;;;4.35;0.70;;;9.60;39.50;;;;;;5039193;28;20986;-61
2023/04/02 11:48:46;;;;;;;3.60;0.70;;;9.50;37.40;;;;;;5032314;28;20060;-61
2023/04/02 11:51:23;;;;;;;1.77;0.70;;;9.50;41.90;;;;;;5029100;28;20425;-61
2023/04/02 11:53:52;;;;;;;1.65;0.68;;;9.50;39.80;;;;;;5041863;28;20049;-61
2023/04/02 11:56:46;;;;;;;2.13;0.55;;;9.50;46.40;;;;;;5028019;28;20422;-61
2023/04/02 12:00:01;;;;;;;5.15;0.60;;;9.50;38.50;;;;;;4997388;28;20088;-61
2023/04/02 12:02:33;;;;;;;1.85;0.60;;;9.60;43.10;;;;;;4951049;28;20043;-61
2023/04/02 12:05:22;;;;;;;2.38;0.75;;;9.70;40.70;;;;;;4946651;29;20118;-61
2023/04/02 12:08:14;;;;;;;6.20;0.90;;;9.60;35.30;;;;;;5005689;28;20049;-61
2023/04/02 12:11:00;;;;;;;2.63;0.88;;;9.60;39.70;;;;;;5017990;28;20060;-61
2023/04/02 12:13:38;;;;;;;6.20;0.65;;;9.40;31.40;;;;;;5026705;28;20053;-61
2023/04/02 12:16:09;;;;;;;1.63;0.68;;;9.30;36.10;;;;;;5013855;28;20079;-61
2023/04/02 12:18:40;;;;;;;2.72;0.65;;;9.40;38.30;;;;;;5026236;28;20499;-61
2023/04/02 12:21:06;;;;;;;2.38;0.82;;;9.50;40.90;;;;;;5030311;28;20041;-61
2023/04/02 12:23:35;;;;;;;2.35;0.55;;;9.60;40.20;;;;;;4997100;28;20056;-61
2023/04/02 12:26:07;;;;;;;2.67;0.70;;;9.80;40.50;;;;;;5032046;28;20061;-61
2023/04/02 12:28:36;;;;;;;0.82;0.50;;;9.90;37.30;;;;;;5027532;28;20551;-61
2023/04/02 12:31:08;;;;;;;9.95;0.90;;;9.90;36.60;;;;;;5027787;28;20041;-61
2023/04/02 12:33:36;;;;;;;6.03;0.88;;;9.80;33.40;;;;;;5015576;28;20061;-61
2023/04/02 12:36:17;;;;;;;2.83;0.50;;;9.60;34.00;;;;;;5026663;28;20160;-62
2023/04/02 12:38:50;;;;;;;2.03;0.70;;;9.70;37.20;;;;;;5026573;28;20049;-61
2023/04/02 12:41:29;;;;;;;2.95;0.90;;;9.80;38.60;;;;;;5026440;28;20049;-61
2023/04/02 12:43:58;;;;;;;0.50;0.47;;;9.80;31.40;;;;;;5026671;28;20053;-61
2023/04/02 12:46:24;;;;;;;2.75;0.80;;;9.90;38.50;;;;;;5026503;28;20052;-61
2023/04/02 12:48:52;;;;;;;1.42;0.50;;;9.90;28.90;;;;;;5026716;28;20112;-61
2023/04/02 12:51:18;;;;;;;1.33;0.60;;;9.90;30.70;;;;;;5026130;28;20038;-61
2023/04/02 12:53:49;;;;;;;2.92;0.90;;;10.00;37.90;;;;;;5026232;28;20076;-61
2023/04/02 12:56:22;;;;;;;3.20;0.73;;;9.90;31.70;;;;;;5008720;28;20056;-61
2023/04/02 12:58:54;;;;;;;2.28;0.63;;;10.00;33.00;;;;;;5026583;28;20380;-61
2023/04/02 13:01:26;;;;;;;4.47;0.60;;;10.10;33.60;;;;;;5029228;28;20517;-61
2023/04/02 13:04:11;;;;;;;1.77;0.60;;;10.00;30.30;;;;;;4994169;28;20084;-61
2023/04/02 13:06:39;;;;;;;5.53;0.73;;;9.90;28.30;;;;;;4991590;28;20049;-61
2023/04/02 13:09:25;;;;;;;1.40;0.50;;;9.70;29.20;;;;;;4994107;28;20518;-61
2023/04/02 13:11:51;;;;;;;2.20;0.50;;;9.70;36.70;;;;;;5032647;28;20049;-61
2023/04/02 13:14:20;;;;;;;2.63;0.82;;;9.80;31.90;;;;;;5026329;28;20512;-61
2023/04/02 13:16:46;;;;;;;1.13;0.73;;;9.90;36.70;;;;;;5031006;28;20507;-61
2023/04/02 13:19:27;;;;;;;0.88;0.60;;;10.00;35.80;;;;;;5027591;28;20132;-62
2023/04/02 13:21:54;;;;;;;1.35;0.50;;;10.00;30.80;;;;;;5044054;28;20044;-61
2023/04/02 13:24:26;;;;;;;1.27;0.60;;;9.90;31.50;;;;;;5033248;28;20138;-61
2023/04/02 13:26:58;;;;;;;1.52;0.50;;;9.90;29.00;;;;;;5010479;28;20045;-61
2023/04/02 13:29:29;;;;;;;3.13;0.47;;;9.90;27.20;;;;;;5042266;28;20045;-61
2023/04/02 13:31:58;;;;;;;1.20;0.50;;;9.80;31.00;;;;;;5035045;28;20119;-61
2023/04/02 13:34:25;;;;;;;3.10;0.67;;;9.80;33.10;;;;;;5035777;28;20046;-61